createdAt,value
2023-08-22T00:02:14.167Z,101449.81
2023-08-22T00:04:42.076Z,101440.72
2023-08-22T00:07:09.834Z,101441.00
2023-08-22T00:09:37.687Z,101447.53
2023-08-22T00:12:07.941Z,101449.69
2023-08-22T00:14:35.778Z,101442.81
2023-08-22T00:17:03.948Z,101441.47
2023-08-22T00:19:31.759Z,101434.88
2023-08-22T00:21:59.634Z,101440.13
2023-08-22T00:24:27.555Z,101429.03
2023-08-22T00:26:56.349Z,101428.47
2023-08-22T00:29:26.043Z,101418.81
2023-08-22T00:31:54.077Z,101416.31
2023-08-22T00:34:22.298Z,101414.31
2023-08-22T00:36:50.075Z,101408.22
2023-08-22T00:39:17.873Z,101415.66
2023-08-22T00:41:45.780Z,101417.31
2023-08-22T00:44:14.265Z,101423.66
2023-08-22T00:46:43.611Z,101424.09
2023-08-22T00:49:11.547Z,101422.28
2023-08-22T00:51:40.876Z,101422.94
2023-08-22T00:54:08.815Z,101427.09
2023-08-22T00:56:36.819Z,101425.59
2023-08-22T00:59:05.503Z,101411.53
2023-08-22T01:01:33.839Z,101418.44
2023-08-22T01:04:03.047Z,101434.38
2023-08-22T01:06:41.460Z,101430.44
2023-08-22T01:11:46.490Z,101418.09
2023-08-22T01:14:20.123Z,101420.78
2023-08-22T01:16:49.772Z,101416.09
2023-08-22T01:19:20.857Z,101411.63
2023-08-22T01:21:52.100Z,101416.03
2023-08-22T01:24:20.406Z,101415.97
2023-08-22T01:26:49.060Z,101413.13
2023-08-22T01:29:22.672Z,101418.44
2023-08-22T01:31:55.931Z,101414.44
2023-08-22T01:34:28.033Z,101409.44
2023-08-22T01:37:00.307Z,101404.25
2023-08-22T01:39:29.807Z,101384.34
2023-08-22T01:41:59.110Z,101383.91
2023-08-22T01:44:29.240Z,101382.34
2023-08-22T01:46:57.108Z,101378.25
2023-08-22T01:49:25.276Z,101388.59
2023-08-22T01:51:53.121Z,101392.25
2023-08-22T01:54:23.457Z,101379.66
2023-08-22T01:56:51.323Z,101381.31
2023-08-22T01:59:19.244Z,101378.22
2023-08-22T02:01:47.046Z,101376.25
2023-08-22T02:04:14.912Z,101384.25
2023-08-22T02:06:42.701Z,101375.81
2023-08-22T02:09:11.034Z,101373.16
2023-08-22T02:11:40.202Z,101363.47
2023-08-22T02:16:35.899Z,101358.34
2023-08-22T02:19:03.640Z,101361.09
2023-08-22T02:21:31.621Z,101352.84
2023-08-22T02:23:59.394Z,101348.47
2023-08-22T02:26:27.646Z,101342.16
2023-08-22T02:28:56.869Z,101346.59
2023-08-22T02:31:24.781Z,101336.91
2023-08-22T02:33:52.826Z,101336.91
2023-08-22T02:36:20.788Z,101341.81
2023-08-22T02:38:48.552Z,101335.50
2023-08-22T02:41:16.391Z,101330.81
2023-08-22T02:43:44.105Z,101329.16
2023-08-22T02:48:41.005Z,101321.97
2023-08-22T02:51:08.987Z,101317.56
2023-08-22T02:53:36.713Z,101323.66
2023-08-22T02:56:06.094Z,101328.66
2023-08-22T02:58:34.104Z,101324.47
2023-08-22T03:01:01.913Z,101326.97
2023-08-22T03:03:32.807Z,101316.78
2023-08-22T03:06:01.096Z,101317.63
2023-08-22T03:08:29.126Z,101311.88
2023-08-22T03:11:01.849Z,101318.19
2023-08-22T03:13:30.465Z,101319.03
2023-08-22T03:15:59.791Z,101312.69
2023-08-22T03:18:27.747Z,101316.56
2023-08-22T03:20:58.243Z,101322.63
2023-08-22T03:23:26.394Z,101327.88
2023-08-22T03:25:58.992Z,101318.53
2023-08-22T03:28:27.585Z,101318.25
2023-08-22T03:30:59.191Z,101317.44
2023-08-22T03:33:27.445Z,101324.63
2023-08-22T03:35:59.410Z,101332.63
2023-08-22T03:38:27.789Z,101334.53
2023-08-22T03:40:57.384Z,101340.28
2023-08-22T03:43:25.413Z,101334.41
2023-08-22T03:45:53.276Z,101331.84
2023-08-22T03:48:21.054Z,101336.50
2023-08-22T03:50:48.831Z,101329.28
2023-08-22T03:53:17.896Z,101315.75
2023-08-22T03:55:46.373Z,101314.22
2023-08-22T03:58:14.283Z,101322.53
2023-08-22T04:00:42.267Z,101330.03
2023-08-22T04:03:10.226Z,101313.81
2023-08-22T04:05:37.973Z,101305.28
2023-08-22T04:08:06.576Z,101303.63
2023-08-22T04:10:35.674Z,101301.97
2023-08-22T04:13:04.150Z,101314.00
2023-08-22T04:15:31.969Z,101317.78
2023-08-22T04:17:59.833Z,101324.06
2023-08-22T04:20:27.664Z,101320.16
2023-08-22T04:22:55.444Z,101316.56
2023-08-22T04:25:25.279Z,101321.25
2023-08-22T04:27:55.487Z,101314.06
2023-08-22T04:30:23.636Z,101311.31
2023-08-22T04:32:51.493Z,101318.50
2023-08-22T04:35:19.581Z,101306.66
2023-08-22T04:37:47.395Z,101310.25
2023-08-22T04:40:15.226Z,101310.25
2023-08-22T04:42:43.175Z,101324.00
2023-08-22T04:45:13.037Z,101314.06
2023-08-22T04:47:41.125Z,101313.47
2023-08-22T04:50:10.438Z,101314.56
2023-08-22T04:52:38.236Z,101315.38
2023-08-22T04:55:06.643Z,101307.97
2023-08-22T04:57:34.382Z,101314.31
2023-08-22T05:00:02.131Z,101300.31
2023-08-22T05:02:31.269Z,101300.88
2023-08-22T05:04:58.989Z,101295.94
2023-08-22T05:07:26.850Z,101297.63
2023-08-22T05:09:54.643Z,101298.69
2023-08-22T05:12:22.693Z,101298.69
2023-08-22T05:14:50.670Z,101301.38
2023-08-22T05:17:19.414Z,101298.22
2023-08-22T05:19:48.659Z,101297.91
2023-08-22T05:22:16.496Z,101306.75
2023-08-22T05:24:44.332Z,101317.59
2023-08-22T05:27:12.294Z,101304.72
2023-08-22T05:29:40.014Z,101311.38
2023-08-22T05:32:08.511Z,101309.22
2023-08-22T05:34:36.816Z,101318.03
2023-08-22T05:37:06.249Z,101324.41
2023-08-22T05:39:34.092Z,101321.38
2023-08-22T05:42:02.119Z,101316.22
2023-08-22T05:44:30.459Z,101324.78
2023-08-22T05:46:58.283Z,101323.16
2023-08-22T05:49:26.105Z,101324.00
2023-08-22T05:52:02.260Z,101318.56
2023-08-22T05:54:31.578Z,101324.38
2023-08-22T05:56:59.565Z,101321.13
2023-08-22T05:59:27.632Z,101317.84
2023-08-22T06:01:57.752Z,101309.00
2023-08-22T06:04:27.211Z,101312.06
2023-08-22T06:06:55.040Z,101315.72
2023-08-22T06:09:23.192Z,101311.59
2023-08-22T06:11:52.495Z,101314.06
2023-08-22T06:14:20.429Z,101321.13
2023-08-22T06:16:48.486Z,101317.28
2023-08-22T06:19:16.551Z,101315.41
2023-08-22T06:21:44.507Z,101321.53
2023-08-22T06:24:12.574Z,101315.53
2023-08-22T06:26:40.549Z,101317.06
2023-08-22T06:29:10.173Z,101301.25
2023-08-22T06:31:38.295Z,101311.31
2023-08-22T06:34:07.029Z,101312.75
2023-08-22T06:36:35.061Z,101309.81
2023-08-22T06:39:04.846Z,101308.19
2023-08-22T06:41:33.105Z,101307.84
2023-08-22T06:44:01.657Z,101309.34
2023-08-22T06:46:30.914Z,101310.59
2023-08-22T06:48:58.805Z,101306.69
2023-08-22T06:51:26.747Z,101312.50
2023-08-22T06:53:54.432Z,101312.34
2023-08-22T06:56:22.227Z,101312.13
2023-08-22T06:58:50.474Z,101315.50
2023-08-22T07:01:18.365Z,101315.81
2023-08-22T07:03:48.473Z,101318.53
2023-08-22T07:06:17.816Z,101319.03
2023-08-22T07:08:46.816Z,101315.72
2023-08-22T07:11:15.450Z,101320.66
2023-08-22T07:13:43.234Z,101317.91
2023-08-22T07:16:11.946Z,101319.59
2023-08-22T07:18:39.723Z,101316.88
2023-08-22T07:21:09.307Z,101315.75
2023-08-22T07:23:37.146Z,101317.16
2023-08-22T07:26:04.978Z,101308.13
2023-08-22T07:28:32.775Z,101321.09
2023-08-22T07:31:01.509Z,101311.66
2023-08-22T07:33:29.467Z,101311.63
2023-08-22T07:35:57.309Z,101317.22
2023-08-22T07:38:26.640Z,101310.88
2023-08-22T07:40:54.370Z,101309.28
2023-08-22T07:43:22.242Z,101305.50
2023-08-22T07:45:50.014Z,101314.09
2023-08-22T07:48:18.239Z,101314.06
2023-08-22T07:50:46.039Z,101319.59
2023-08-22T07:53:13.801Z,101321.84
2023-08-22T07:55:42.944Z,101311.03
2023-08-22T07:58:10.869Z,101316.03
2023-08-22T08:00:38.906Z,101313.53
2023-08-22T08:03:06.892Z,101318.47
2023-08-22T08:05:35.053Z,101320.97
2023-08-22T08:08:03.002Z,101325.94
2023-08-22T08:10:30.873Z,101322.66
2023-08-22T08:13:01.153Z,101316.03
2023-08-22T08:15:28.985Z,101314.38
2023-08-22T08:17:59.423Z,101315.50
2023-08-22T08:20:27.758Z,101312.44
2023-08-22T08:22:55.989Z,101309.41
2023-08-22T08:25:23.995Z,101311.34
2023-08-22T08:27:51.905Z,101306.09
2023-08-22T08:30:23.388Z,101299.44
2023-08-22T08:32:51.666Z,101313.31
2023-08-22T08:35:19.817Z,101310.53
2023-08-22T08:37:48.292Z,101319.38
2023-08-22T08:40:16.484Z,101322.13
2023-08-22T08:42:45.247Z,101322.41
2023-08-22T08:45:15.935Z,101327.66
2023-08-22T08:47:47.030Z,101325.47
2023-08-22T08:50:16.080Z,101321.84
2023-08-22T08:52:46.357Z,101313.81
2023-08-22T08:55:14.407Z,101322.69
2023-08-22T08:57:42.473Z,101326.03
2023-08-22T09:00:11.384Z,101329.34
2023-08-22T09:02:38.400Z,101331.56
2023-08-22T09:05:08.716Z,101330.72
2023-08-22T09:07:36.877Z,101331.56
2023-08-22T09:10:05.724Z,101333.78
2023-08-22T09:12:34.716Z,101338.75
2023-08-22T09:15:11.503Z,101333.78
2023-08-22T09:17:43.429Z,101338.75
2023-08-22T09:20:14.676Z,101326.31
2023-08-22T09:22:43.772Z,101330.72
2023-08-22T09:25:12.568Z,101332.97
2023-08-22T09:27:40.730Z,101329.63
2023-08-22T09:30:09.382Z,101337.66
2023-08-22T09:32:37.345Z,101340.41
2023-08-22T09:35:07.374Z,101328.78
2023-08-22T09:37:38.077Z,101332.38
2023-08-22T09:40:11.761Z,101333.78
2023-08-22T09:42:41.636Z,101323.78
2023-08-22T09:45:12.280Z,101326.81
2023-08-22T09:47:45.152Z,101322.63
2023-08-22T09:50:16.688Z,101332.31
2023-08-22T09:52:47.218Z,101338.72
2023-08-22T09:55:16.641Z,101337.63
2023-08-22T09:57:45.154Z,101338.72
2023-08-22T10:00:14.973Z,101330.41
2023-08-22T10:02:43.445Z,101334.25
2023-08-22T10:05:12.716Z,101339.22
2023-08-22T10:07:41.022Z,101332.59
2023-08-22T10:10:11.633Z,101339.53
2023-08-22T10:12:41.645Z,101335.63
2023-08-22T10:15:10.829Z,101337.84
2023-08-22T10:17:41.297Z,101327.56
2023-08-22T10:20:14.036Z,101332.84
2023-08-22T10:22:41.991Z,101329.75
2023-08-22T10:25:11.362Z,101341.94
2023-08-22T10:27:41.585Z,101335.88
2023-08-22T10:30:19.949Z,101334.22
2023-08-22T10:33:07.275Z,101337.84
2023-08-22T10:35:39.956Z,101329.78
2023-08-22T10:38:20.924Z,101334.16
2023-08-22T10:40:57.881Z,101328.72
2023-08-22T10:43:38.365Z,101334.63
2023-08-22T10:46:07.461Z,101329.94
2023-08-22T10:48:36.653Z,101330.19
2023-08-22T10:51:09.479Z,101332.44
2023-08-22T10:53:45.106Z,101332.72
2023-08-22T10:56:24.105Z,101325.47
2023-08-22T10:59:01.825Z,101330.19
2023-08-22T11:01:31.563Z,101326.28
2023-08-22T11:04:00.453Z,101334.09
2023-08-22T11:06:28.303Z,101327.41
2023-08-22T11:08:56.382Z,101325.25
2023-08-22T11:11:25.785Z,101317.19
2023-08-22T11:16:22.225Z,101322.06
2023-08-22T11:18:51.198Z,101315.63
2023-08-22T11:21:19.503Z,101319.50
2023-08-22T11:23:47.724Z,101317.59
2023-08-22T11:26:15.550Z,101315.66
2023-08-22T11:28:45.241Z,101316.56
2023-08-22T11:31:18.883Z,101324.84
2023-08-22T11:33:49.141Z,101325.06
2023-08-22T11:36:17.463Z,101323.38
2023-08-22T11:38:46.262Z,101328.28
2023-08-22T11:41:14.685Z,101326.59
2023-08-22T11:43:53.105Z,101324.59
2023-08-22T11:46:22.999Z,101311.84
2023-08-22T11:48:52.537Z,101306.03
2023-08-22T11:51:24.117Z,101305.47
2023-08-22T11:53:52.511Z,101305.47
2023-08-22T11:56:21.049Z,101314.31
2023-08-22T11:58:54.232Z,101305.63
2023-08-22T12:01:23.658Z,101310.91
2023-08-22T12:03:56.770Z,101314.25
2023-08-22T12:06:24.898Z,101318.69
2023-08-22T12:08:56.936Z,101317.78
2023-08-22T12:11:26.263Z,101312.56
2023-08-22T12:13:55.554Z,101324.72
2023-08-22T12:16:23.566Z,101316.34
2023-08-22T12:18:52.104Z,101324.44
2023-08-22T12:21:20.043Z,101316.47
2023-08-22T12:23:50.488Z,101314.75
2023-08-22T12:26:18.775Z,101316.47
2023-08-22T12:28:46.847Z,101325.13
2023-08-22T12:31:16.406Z,101324.72
2023-08-22T12:33:44.554Z,101321.47
2023-08-22T12:36:12.772Z,101331.91
2023-08-22T12:38:40.810Z,101327.03
2023-08-22T12:41:09.453Z,101332.28
2023-08-22T12:43:37.579Z,101325.25
2023-08-22T12:46:06.021Z,101324.06
2023-08-22T12:48:36.918Z,101327.03
2023-08-22T12:51:05.854Z,101325.34
2023-08-22T12:53:35.002Z,101318.34
2023-08-22T12:56:03.877Z,101318.53
2023-08-22T12:58:34.279Z,101312.97
2023-08-22T13:01:04.474Z,101311.16
2023-08-22T13:03:34.041Z,101317.28
2023-08-22T13:06:04.334Z,101317.16
2023-08-22T13:08:38.212Z,101308.28
2023-08-22T13:11:15.310Z,101309.00
2023-08-22T13:13:44.749Z,101306.47
2023-08-22T13:16:21.196Z,101315.78
2023-08-22T13:18:49.923Z,101313.53
2023-08-22T13:21:19.642Z,101311.34
2023-08-22T13:23:48.675Z,101302.94
2023-08-22T13:26:18.033Z,101298.59
2023-08-22T13:28:46.417Z,101305.94
2023-08-22T13:31:15.031Z,101300.03
2023-08-22T13:33:43.188Z,101313.25
2023-08-22T13:36:11.255Z,101309.19
2023-08-22T13:38:41.407Z,101305.03
2023-08-22T13:41:14.565Z,101317.53
2023-08-22T13:43:42.755Z,101321.72
2023-08-22T13:46:15.240Z,101327.03
2023-08-22T13:48:43.827Z,101320.09
2023-08-22T13:51:14.992Z,101321.72
2023-08-22T13:53:44.604Z,101305.16
2023-08-22T13:56:14.444Z,101292.66
2023-08-22T13:58:45.026Z,101304.47
2023-08-22T14:01:13.295Z,101304.06
2023-08-22T14:03:41.930Z,101300.31
2023-08-22T14:06:10.792Z,101314.88
2023-08-22T14:08:39.336Z,101312.94
2023-08-22T14:11:11.906Z,101328.16
2023-08-22T14:13:40.476Z,101326.84
2023-08-22T14:16:08.526Z,101319.97
2023-08-22T14:18:36.691Z,101318.19
2023-08-22T14:21:05.197Z,101316.41
2023-08-22T14:23:33.992Z,101312.34
2023-08-22T14:26:04.375Z,101315.44
2023-08-22T14:28:33.628Z,101314.28
2023-08-22T14:31:03.488Z,101321.81
2023-08-22T14:33:32.488Z,101314.50
2023-08-22T14:36:00.531Z,101316.06
2023-08-22T14:38:29.089Z,101316.06
2023-08-22T14:40:58.252Z,101326.53
2023-08-22T14:43:29.169Z,101325.75
2023-08-22T14:45:59.236Z,101335.69
2023-08-22T14:48:27.941Z,101328.09
2023-08-22T14:50:56.127Z,101335.63
2023-08-22T14:53:29.475Z,101329.19
2023-08-22T14:56:03.764Z,101329.69
2023-08-22T14:58:41.421Z,101320.09
2023-08-22T15:01:11.960Z,101313.44
2023-08-22T15:03:41.016Z,101315.09
2023-08-22T15:06:11.160Z,101312.44
2023-08-22T15:08:41.350Z,101315.50
2023-08-22T15:11:11.307Z,101320.09
2023-08-22T15:13:39.947Z,101323.59
2023-08-22T15:16:10.876Z,101319.91
2023-08-22T15:18:43.776Z,101316.16
2023-08-22T15:21:14.429Z,101303.13
2023-08-22T15:23:44.419Z,101317.06
2023-08-22T15:26:15.381Z,101312.72
2023-08-22T15:28:48.685Z,101305.06
2023-08-22T15:31:26.813Z,101302.00
2023-08-22T15:33:57.410Z,101314.94
2023-08-22T15:36:29.350Z,101315.44
2023-08-22T15:39:04.938Z,101317.31
2023-08-22T15:41:34.456Z,101310.66
2023-08-22T15:44:04.731Z,101298.44
2023-08-22T15:46:33.964Z,101304.53
2023-08-22T15:49:03.857Z,101302.31
2023-08-22T15:51:32.314Z,101307.22
2023-08-22T15:54:00.925Z,101312.13
2023-08-22T15:56:29.623Z,101319.22
2023-08-22T15:58:58.270Z,101313.81
2023-08-22T16:01:28.694Z,101316.16
2023-08-22T16:03:57.916Z,101319.59
2023-08-22T16:06:28.020Z,101324.94
2023-08-22T16:08:56.401Z,101318.81
2023-08-22T16:11:26.122Z,101316.31
2023-08-22T16:13:54.593Z,101311.06
2023-08-22T16:16:22.798Z,101306.91
2023-08-22T16:18:50.825Z,101299.22
2023-08-22T16:21:18.835Z,101297.91
2023-08-22T16:23:51.916Z,101292.91
2023-08-22T16:26:20.025Z,101291.25
2023-08-22T16:28:48.480Z,101299.28
2023-08-22T16:31:16.810Z,101286.00
2023-08-22T16:33:45.157Z,101284.66
2023-08-22T16:36:13.254Z,101291.81
2023-08-22T16:38:41.327Z,101285.69
2023-08-22T16:41:10.704Z,101298.97
2023-08-22T16:43:38.635Z,101297.81
2023-08-22T16:46:07.095Z,101295.25
2023-08-22T16:48:35.641Z,101281.63
2023-08-22T16:51:03.797Z,101281.34
2023-08-22T16:53:38.858Z,101290.25
2023-08-22T16:56:10.030Z,101287.22
2023-08-22T16:58:40.484Z,101293.09
2023-08-22T17:01:09.978Z,101287.63
2023-08-22T17:03:39.342Z,101288.78
2023-08-22T17:06:08.870Z,101286.34
2023-08-22T17:08:38.334Z,101283.59
2023-08-22T17:11:08.274Z,101280.84
2023-08-22T17:13:38.820Z,101278.38
2023-08-22T17:16:07.347Z,101283.63
2023-08-22T17:18:35.633Z,101278.38
2023-08-22T17:21:07.168Z,101284.47
2023-08-22T17:23:35.176Z,101285.91
2023-08-22T17:26:12.504Z,101290.31
2023-08-22T17:28:42.015Z,101291.47
2023-08-22T17:31:11.083Z,101286.72
2023-08-22T17:33:40.663Z,101283.69
2023-08-22T17:36:10.454Z,101274.84
2023-08-22T17:38:39.565Z,101279.31
2023-08-22T17:41:09.169Z,101278.47
2023-08-22T17:43:39.438Z,101287.34
2023-08-22T17:46:09.676Z,101285.97
2023-08-22T17:48:37.600Z,101288.78
2023-08-22T17:51:06.106Z,101281.31
2023-08-22T17:53:34.258Z,101288.78
2023-08-22T17:56:03.397Z,101282.97
2023-08-22T17:58:32.278Z,101285.44
2023-08-22T18:01:00.343Z,101288.78
2023-08-22T18:03:30.040Z,101286.28
2023-08-22T18:05:58.921Z,101289.06
2023-08-22T18:08:28.418Z,101287.69
2023-08-22T18:10:57.645Z,101287.69
2023-08-22T18:13:27.165Z,101290.97
2023-08-22T18:16:09.010Z,101292.34
2023-08-22T18:18:41.998Z,101298.22
2023-08-22T18:21:12.719Z,101292.69
2023-08-22T18:23:41.840Z,101294.09
2023-08-22T18:26:10.985Z,101297.16
2023-08-22T18:28:40.149Z,101304.66
2023-08-22T18:31:23.499Z,101299.41
2023-08-22T18:33:55.658Z,101298.59
2023-08-22T18:36:26.130Z,101293.34
2023-08-22T18:38:54.986Z,101293.34
2023-08-22T18:41:23.435Z,101302.22
2023-08-22T18:43:52.705Z,101295.31
2023-08-22T18:46:22.800Z,101300.28
2023-08-22T18:48:52.219Z,101306.66
2023-08-22T18:51:20.158Z,101309.72
2023-08-22T18:53:49.007Z,101310.22
2023-08-22T18:56:17.619Z,101313.25
2023-08-22T18:58:45.766Z,101311.34
2023-08-22T19:01:13.852Z,101312.72
2023-08-22T19:03:41.846Z,101324.34
2023-08-22T19:06:11.185Z,101316.31
2023-08-22T19:08:39.196Z,101317.69
2023-08-22T19:11:07.246Z,101321.56
2023-08-22T19:13:35.341Z,101324.63
2023-08-22T19:16:03.694Z,101322.41
2023-08-22T19:18:31.692Z,101326.56
2023-08-22T19:20:59.626Z,101322.13
2023-08-22T19:23:29.104Z,101330.69
2023-08-22T19:26:02.685Z,101331.81
2023-08-22T19:28:30.556Z,101331.25
2023-08-22T19:30:59.875Z,101333.47
2023-08-22T19:33:30.222Z,101342.03
2023-08-22T19:35:58.596Z,101335.41
2023-08-22T19:38:26.753Z,101342.31
2023-08-22T19:40:59.786Z,101342.03
2023-08-22T19:43:28.043Z,101342.56
2023-08-22T19:45:56.655Z,101344.78
2023-08-22T19:48:24.912Z,101342.84
2023-08-22T19:50:53.303Z,101344.22
2023-08-22T19:53:21.553Z,101339.78
2023-08-22T19:55:50.153Z,101338.13
2023-08-22T19:58:19.448Z,101338.69
2023-08-22T20:00:47.964Z,101347.78
2023-08-22T20:03:16.219Z,101343.38
2023-08-22T20:05:45.480Z,101345.88
2023-08-22T20:08:13.612Z,101344.78
2023-08-22T20:10:41.709Z,101335.94
2023-08-22T20:13:09.688Z,101333.75
2023-08-22T20:15:38.762Z,101342.34
2023-08-22T20:18:07.752Z,101340.94
2023-08-22T20:20:36.416Z,101339.00
2023-08-22T20:23:04.306Z,101339.81
2023-08-22T20:25:35.524Z,101345.94
2023-08-22T20:28:03.349Z,101342.88
2023-08-22T20:30:31.731Z,101344.84
2023-08-22T20:33:01.888Z,101344.81
2023-08-22T20:35:30.142Z,101352.25
2023-08-22T20:37:57.977Z,101348.94
2023-08-22T20:40:26.159Z,101361.63
2023-08-22T20:42:56.868Z,101343.63
2023-08-22T20:45:24.743Z,101347.50
2023-08-22T20:47:53.418Z,101343.28
2023-08-22T20:50:22.728Z,101348.53
2023-08-22T20:52:51.113Z,101351.28
2023-08-22T20:55:19.177Z,101349.88
2023-08-22T20:57:47.195Z,101348.47
2023-08-22T21:00:19.079Z,101352.91
2023-08-22T21:02:47.541Z,101344.31
2023-08-22T21:05:16.359Z,101340.16
2023-08-22T21:07:46.010Z,101343.19
2023-08-22T21:10:14.100Z,101342.06
2023-08-22T21:12:41.928Z,101336.25
2023-08-22T21:15:12.856Z,101338.47
2023-08-22T21:17:40.565Z,101331.53
2023-08-22T21:20:12.541Z,101340.06
2023-08-22T21:22:40.691Z,101328.72
2023-08-22T21:25:11.912Z,101339.22
2023-08-22T21:27:40.380Z,101345.84
2023-08-22T21:30:09.088Z,101337.81
2023-08-22T21:32:36.948Z,101341.09
2023-08-22T21:35:05.341Z,101336.13
2023-08-22T21:37:33.096Z,101342.19
2023-08-22T21:40:00.899Z,101334.16
2023-08-22T21:42:30.757Z,101338.03
2023-08-22T21:44:58.784Z,101331.13
2023-08-22T21:47:26.671Z,101333.28
2023-08-22T21:49:56.444Z,101339.38
2023-08-22T21:52:24.286Z,101335.75
2023-08-22T21:54:52.141Z,101337.34
2023-08-22T21:57:19.966Z,101333.78
2023-08-22T21:59:49.065Z,101338.72
2023-08-22T22:02:16.885Z,101335.38
2023-08-22T22:04:44.626Z,101333.69
2023-08-22T22:07:12.405Z,101333.38
2023-08-22T22:09:40.206Z,101327.88
2023-08-22T22:12:08.992Z,101332.56
2023-08-22T22:14:36.818Z,101327.06
2023-08-22T22:17:06.284Z,101322.06
2023-08-22T22:19:34.759Z,101320.66
2023-08-22T22:22:02.611Z,101330.88
2023-08-22T22:24:30.473Z,101327.25
2023-08-22T22:26:58.336Z,101324.75
2023-08-22T22:29:26.545Z,101330.53
2023-08-22T22:31:54.383Z,101328.06
2023-08-22T22:34:24.063Z,101328.88
2023-08-22T22:36:51.851Z,101324.72
2023-08-22T22:39:19.661Z,101332.41
2023-08-22T22:41:47.599Z,101320.56
2023-08-22T22:44:15.558Z,101317.22
2023-08-22T22:46:43.585Z,101331.00
2023-08-22T22:49:11.480Z,101322.66
2023-08-22T22:51:40.869Z,101329.00
2023-08-22T22:54:08.644Z,101324.84
2023-08-22T22:56:36.962Z,101322.63
2023-08-22T22:59:05.062Z,101333.34
2023-08-22T23:01:33.694Z,101326.44
2023-08-22T23:04:01.422Z,101331.13
2023-08-22T23:06:29.306Z,101334.97
2023-08-22T23:08:58.728Z,101333.56
2023-08-22T23:11:33.712Z,101329.88
2023-08-22T23:14:14.317Z,101331.56
2023-08-22T23:16:42.166Z,101328.81
2023-08-22T23:19:10.001Z,101330.72
2023-08-22T23:21:38.078Z,101329.03
2023-08-22T23:24:07.447Z,101327.38
2023-08-22T23:26:35.296Z,101323.19
2023-08-22T23:29:03.062Z,101320.41
2023-08-22T23:31:30.920Z,101328.41
2023-08-22T23:33:58.820Z,101325.91
2023-08-22T23:36:26.578Z,101330.84
2023-08-22T23:38:54.301Z,101332.19
2023-08-22T23:41:23.336Z,101335.47
2023-08-22T23:43:51.331Z,101333.00
2023-08-22T23:46:19.133Z,101327.97
2023-08-22T23:48:47.994Z,101328.50
2023-08-22T23:51:17.373Z,101334.53
2023-08-22T23:53:45.896Z,101330.69
2023-08-22T23:56:13.604Z,101324.34
2023-08-22T23:58:42.752Z,101330.13
